createdAt,value
2017-05-16T00:01:08.432Z,92.50
2017-05-16T00:03:35.584Z,92.00
2017-05-16T00:06:02.803Z,92.40
2017-05-16T00:08:29.932Z,92.10
2017-05-16T00:10:57.100Z,92.20
2017-05-16T00:13:24.308Z,92.10
2017-05-16T00:15:51.507Z,92.40
2017-05-16T00:18:18.652Z,92.60
2017-05-16T00:20:45.883Z,92.30
2017-05-16T00:23:13.097Z,92.00
2017-05-16T00:25:40.340Z,92.20
2017-05-16T00:28:07.518Z,92.50
2017-05-16T00:30:34.720Z,92.60
2017-05-16T00:33:02.620Z,92.90
2017-05-16T00:35:29.799Z,92.80
2017-05-16T00:37:57.023Z,92.70
2017-05-16T00:40:24.268Z,92.80
2017-05-16T00:42:51.401Z,92.80
2017-05-16T00:45:18.540Z,92.90
2017-05-16T00:47:46.456Z,92.80
2017-05-16T00:50:13.604Z,92.90
2017-05-16T00:52:41.011Z,93.00
2017-05-16T00:55:08.948Z,93.00
2017-05-16T00:57:36.080Z,92.60
2017-05-16T01:00:03.247Z,92.60
2017-05-16T01:02:30.400Z,92.60
2017-05-16T01:04:57.536Z,92.60
2017-05-16T01:07:24.731Z,92.60
2017-05-16T01:09:52.677Z,92.60
2017-05-16T01:12:20.768Z,93.00
2017-05-16T01:14:48.716Z,92.90
2017-05-16T01:17:15.880Z,92.90
2017-05-16T01:19:43.828Z,93.00
2017-05-16T01:22:11.035Z,92.90
2017-05-16T01:24:38.172Z,93.00
2017-05-16T01:27:05.303Z,93.20
2017-05-16T01:29:32.549Z,93.10
2017-05-16T01:32:00.453Z,93.30
2017-05-16T01:34:27.637Z,93.30
2017-05-16T01:36:54.776Z,93.30
2017-05-16T01:39:21.921Z,93.50
2017-05-16T01:41:49.176Z,93.20
2017-05-16T01:44:16.323Z,93.70
2017-05-16T01:46:43.460Z,93.80
2017-05-16T01:49:10.653Z,93.50
2017-05-16T01:51:38.559Z,93.30
2017-05-16T01:54:05.712Z,93.10
2017-05-16T01:56:32.907Z,93.20
2017-05-16T01:59:00.121Z,93.10
2017-05-16T02:01:27.308Z,92.90
2017-05-16T02:03:54.528Z,92.80
2017-05-16T02:06:21.693Z,92.90
2017-05-16T02:08:48.923Z,92.70
2017-05-16T02:11:16.165Z,92.50
2017-05-16T02:13:44.180Z,92.40
2017-05-16T02:16:12.243Z,92.40
2017-05-16T02:18:39.468Z,92.70
2017-05-16T02:21:06.671Z,92.70
2017-05-16T02:23:34.604Z,92.80
2017-05-16T02:26:02.725Z,93.00
2017-05-16T02:28:29.935Z,93.00
2017-05-16T02:30:57.143Z,93.00
2017-05-16T02:33:24.317Z,93.00
2017-05-16T02:35:51.567Z,92.80
2017-05-16T02:38:18.751Z,92.80
2017-05-16T02:40:46.791Z,92.90
2017-05-16T02:43:13.933Z,93.10
2017-05-16T02:45:41.132Z,93.00
2017-05-16T02:48:09.025Z,93.10
2017-05-16T02:50:36.212Z,93.30
2017-05-16T02:53:03.404Z,93.30
2017-05-16T02:55:30.570Z,93.30
2017-05-16T02:57:57.708Z,93.40
2017-05-16T03:00:24.894Z,93.30
2017-05-16T03:02:52.038Z,93.50
2017-05-16T03:05:19.217Z,93.10
2017-05-16T03:07:46.443Z,93.10
2017-05-16T03:10:13.579Z,92.80
2017-05-16T03:12:40.896Z,92.80
2017-05-16T03:15:08.966Z,92.80
2017-05-16T03:17:36.898Z,93.00
2017-05-16T03:20:04.026Z,93.00
2017-05-16T03:22:31.223Z,93.20
2017-05-16T03:24:59.177Z,93.30
2017-05-16T03:27:26.342Z,93.40
2017-05-16T03:29:54.367Z,93.60
2017-05-16T03:32:21.495Z,93.60
2017-05-16T03:34:48.739Z,93.60
2017-05-16T03:37:15.891Z,93.40
2017-05-16T03:39:43.041Z,93.30
2017-05-16T03:42:10.235Z,93.50
2017-05-16T03:44:37.462Z,93.60
2017-05-16T03:47:04.674Z,93.90
2017-05-16T03:49:32.366Z,94.40
2017-05-16T03:51:59.527Z,93.90
2017-05-16T03:54:26.676Z,93.80
2017-05-16T03:56:53.950Z,93.70
2017-05-16T03:59:21.113Z,93.50
2017-05-16T04:01:48.235Z,93.40
2017-05-16T04:04:15.396Z,93.40
2017-05-16T04:06:42.837Z,93.30
2017-05-16T04:09:10.040Z,93.00
2017-05-16T04:11:37.255Z,92.90
2017-05-16T04:14:04.403Z,92.80
2017-05-16T04:16:31.532Z,92.50
2017-05-16T04:18:58.704Z,92.40
2017-05-16T04:21:25.896Z,92.30
2017-05-16T04:23:53.051Z,92.20
2017-05-16T04:26:20.245Z,91.90
2017-05-16T04:28:47.374Z,91.80
2017-05-16T04:31:14.844Z,91.70
2017-05-16T04:33:42.040Z,91.70
2017-05-16T04:36:09.332Z,91.60
2017-05-16T04:38:36.483Z,91.40
2017-05-16T04:41:03.712Z,91.20
2017-05-16T04:43:31.095Z,91.00
2017-05-16T04:45:58.267Z,90.80
2017-05-16T04:48:25.493Z,90.50
2017-05-16T04:50:52.677Z,90.60
2017-05-16T04:53:19.864Z,90.30
2017-05-16T04:55:47.123Z,90.20
2017-05-16T04:58:14.322Z,90.00
2017-05-16T05:00:41.507Z,90.00
2017-05-16T05:03:08.837Z,89.90
2017-05-16T05:05:36.784Z,89.60
2017-05-16T05:08:03.956Z,88.90
2017-05-16T05:10:31.917Z,88.40
2017-05-16T05:12:59.051Z,88.00
2017-05-16T05:15:26.240Z,86.10
2017-05-16T05:17:53.473Z,87.10
2017-05-16T05:20:21.377Z,86.80
2017-05-16T05:22:48.664Z,86.80
2017-05-16T05:25:15.879Z,87.40
2017-05-16T05:27:43.093Z,85.90
2017-05-16T05:30:10.244Z,87.90
2017-05-16T05:32:38.180Z,86.70
2017-05-16T05:35:05.312Z,85.70
2017-05-16T05:37:32.772Z,84.30
2017-05-16T05:39:59.933Z,83.50
2017-05-16T05:42:27.151Z,84.10
2017-05-16T05:44:54.402Z,83.70
2017-05-16T05:47:21.599Z,83.90
2017-05-16T05:49:48.827Z,81.70
2017-05-16T05:52:16.081Z,81.80
2017-05-16T05:54:43.216Z,81.40
2017-05-16T05:57:10.457Z,80.20
2017-05-16T05:59:37.672Z,80.00
2017-05-16T06:02:05.629Z,79.70
2017-05-16T06:04:32.805Z,80.30
2017-05-16T06:07:00.947Z,79.70
2017-05-16T06:09:28.152Z,77.10
2017-05-16T06:11:55.349Z,75.20
2017-05-16T06:14:22.654Z,74.60
2017-05-16T06:16:49.918Z,73.70
2017-05-16T06:19:17.089Z,69.30
2017-05-16T06:21:44.332Z,68.10
2017-05-16T06:24:11.492Z,64.90
2017-05-16T06:26:38.634Z,59.10
2017-05-16T06:29:05.839Z,57.80
2017-05-16T06:31:32.981Z,55.90
2017-05-16T06:34:00.136Z,55.20
2017-05-16T06:36:27.341Z,52.80
2017-05-16T06:38:54.480Z,52.30
2017-05-16T06:41:21.693Z,48.90
2017-05-16T06:43:49.009Z,47.00
2017-05-16T06:46:16.177Z,46.90
2017-05-16T06:48:43.382Z,45.90
2017-05-16T06:51:10.598Z,44.50
2017-05-16T06:53:37.807Z,44.30
2017-05-16T06:56:05.175Z,42.10
2017-05-16T06:58:33.081Z,39.90
2017-05-16T07:01:00.381Z,38.60
2017-05-16T07:03:27.547Z,36.30
2017-05-16T07:05:55.523Z,36.50
2017-05-16T07:08:23.495Z,36.00
2017-05-16T07:10:50.640Z,39.10
2017-05-16T07:13:18.566Z,39.50
2017-05-16T07:15:45.834Z,36.60
2017-05-16T07:18:13.041Z,33.70
2017-05-16T07:20:40.200Z,32.30
2017-05-16T07:23:07.467Z,30.70
2017-05-16T07:25:34.693Z,29.00
2017-05-16T07:28:01.891Z,29.50
2017-05-16T07:30:29.077Z,29.60
2017-05-16T07:32:56.274Z,28.90
2017-05-16T07:35:23.481Z,28.90
2017-05-16T07:37:50.743Z,30.00
2017-05-16T07:40:17.978Z,30.00
2017-05-16T07:42:45.128Z,28.70
2017-05-16T07:45:12.430Z,31.20
2017-05-16T07:47:39.580Z,32.80
2017-05-16T07:50:06.789Z,29.60
2017-05-16T07:52:33.950Z,30.00
2017-05-16T07:55:01.136Z,29.80
2017-05-16T07:57:28.371Z,29.90
2017-05-16T07:59:55.563Z,29.50
2017-05-16T08:02:23.485Z,27.30
2017-05-16T08:04:52.243Z,28.00
2017-05-16T08:07:19.447Z,28.40
2017-05-16T08:09:46.628Z,27.60
2017-05-16T08:12:13.828Z,26.50
2017-05-16T08:14:41.063Z,27.80
2017-05-16T08:17:08.283Z,26.20
2017-05-16T08:19:35.436Z,26.40
2017-05-16T08:22:02.683Z,27.40
2017-05-16T08:24:29.883Z,28.80
2017-05-16T08:26:57.018Z,28.20
2017-05-16T08:29:24.168Z,29.40
2017-05-16T08:31:51.493Z,29.10
2017-05-16T08:34:18.665Z,28.00
2017-05-16T08:36:45.852Z,30.10
2017-05-16T08:39:13.034Z,30.90
2017-05-16T08:41:40.231Z,31.10
2017-05-16T08:44:07.394Z,30.90
2017-05-16T08:46:34.525Z,33.90
2017-05-16T08:49:01.756Z,34.90
2017-05-16T08:51:28.956Z,36.30
2017-05-16T08:53:56.885Z,35.70
2017-05-16T08:56:24.075Z,33.80
2017-05-16T08:58:51.960Z,34.20
2017-05-16T09:01:19.166Z,33.70
2017-05-16T09:03:46.432Z,31.10
2017-05-16T09:06:13.673Z,30.60
2017-05-16T09:08:41.668Z,30.30
2017-05-16T09:11:09.609Z,30.90
2017-05-16T09:13:37.230Z,29.40
2017-05-16T09:16:04.500Z,30.10
2017-05-16T09:18:31.713Z,32.60
2017-05-16T09:20:58.888Z,31.80
2017-05-16T09:23:26.104Z,31.10
2017-05-16T09:25:54.179Z,30.40
2017-05-16T09:28:22.100Z,32.40
2017-05-16T09:30:49.334Z,32.30
2017-05-16T09:33:16.536Z,32.50
2017-05-16T09:35:44.658Z,31.40
2017-05-16T09:38:11.871Z,29.00
2017-05-16T09:40:39.036Z,29.40
2017-05-16T09:43:06.228Z,29.70
2017-05-16T09:45:33.419Z,30.30
2017-05-16T09:48:01.303Z,33.20
2017-05-16T09:50:29.433Z,30.90
2017-05-16T09:52:56.585Z,32.40
2017-05-16T09:55:23.801Z,33.60
2017-05-16T09:57:51.121Z,31.20
2017-05-16T10:00:18.304Z,35.10
2017-05-16T10:02:45.451Z,34.40
2017-05-16T10:05:12.709Z,37.70
2017-05-16T10:07:39.911Z,35.00
2017-05-16T10:10:07.059Z,31.50
2017-05-16T10:12:34.239Z,33.20
2017-05-16T10:15:01.482Z,31.10
2017-05-16T10:17:28.626Z,31.00
2017-05-16T10:19:55.775Z,30.50
2017-05-16T10:22:22.970Z,30.90
2017-05-16T10:24:50.211Z,32.10
2017-05-16T10:27:17.601Z,34.70
2017-05-16T10:29:45.661Z,36.20
2017-05-16T10:32:12.894Z,38.00
2017-05-16T10:34:40.085Z,40.30
2017-05-16T10:37:08.039Z,38.70
2017-05-16T10:39:35.980Z,37.50
2017-05-16T10:42:03.219Z,38.00
2017-05-16T10:44:30.393Z,37.10
2017-05-16T10:46:57.561Z,33.10
2017-05-16T10:49:25.891Z,37.80
2017-05-16T10:51:53.140Z,34.40
2017-05-16T10:54:20.379Z,32.60
2017-05-16T10:56:47.596Z,33.50
2017-05-16T10:59:16.279Z,35.00
2017-05-16T11:01:44.235Z,39.30
2017-05-16T11:04:11.432Z,36.70
2017-05-16T11:06:38.716Z,36.40
2017-05-16T11:09:06.028Z,34.70
2017-05-16T11:11:33.391Z,37.80
2017-05-16T11:14:00.668Z,35.40
2017-05-16T11:16:27.832Z,36.90
2017-05-16T11:18:54.993Z,35.60
2017-05-16T11:21:22.878Z,32.70
2017-05-16T11:23:50.069Z,34.90
2017-05-16T11:26:17.302Z,33.90
2017-05-16T11:28:44.497Z,32.40
2017-05-16T11:31:11.700Z,33.30
2017-05-16T11:33:38.848Z,38.20
2017-05-16T11:36:06.155Z,35.20
2017-05-16T11:38:33.378Z,36.40
2017-05-16T11:41:00.538Z,38.10
2017-05-16T11:43:27.743Z,37.70
2017-05-16T11:45:55.017Z,38.70
2017-05-16T11:48:22.160Z,39.80
2017-05-16T11:50:49.458Z,40.20
2017-05-16T11:53:16.727Z,38.10
2017-05-16T11:55:44.619Z,39.70
2017-05-16T11:58:11.815Z,41.40
2017-05-16T12:00:39.001Z,43.20
2017-05-16T12:03:06.942Z,40.90
2017-05-16T12:05:34.175Z,43.20
2017-05-16T12:08:01.826Z,40.40
2017-05-16T12:10:28.974Z,39.80
2017-05-16T12:12:56.242Z,35.80
2017-05-16T12:15:23.416Z,36.60
2017-05-16T12:17:50.563Z,37.00
2017-05-16T12:20:17.731Z,34.40
2017-05-16T12:22:45.643Z,34.90
2017-05-16T12:25:12.849Z,38.00
2017-05-16T12:27:40.827Z,39.00
2017-05-16T12:30:07.979Z,33.70
2017-05-16T12:32:35.155Z,34.30
2017-05-16T12:35:02.388Z,31.80
2017-05-16T12:37:29.542Z,30.80
2017-05-16T12:39:56.719Z,29.30
2017-05-16T12:42:23.920Z,26.70
2017-05-16T12:44:51.252Z,24.90
2017-05-16T12:47:18.504Z,25.40
2017-05-16T12:49:45.925Z,26.80
2017-05-16T12:52:13.105Z,25.00
2017-05-16T12:54:40.261Z,23.90
2017-05-16T12:57:08.221Z,23.50
2017-05-16T12:59:35.396Z,21.90
2017-05-16T13:02:03.339Z,22.70
2017-05-16T13:04:30.543Z,20.80
2017-05-16T13:06:57.704Z,23.60
2017-05-16T13:09:24.832Z,22.90
2017-05-16T13:11:52.072Z,23.90
2017-05-16T13:14:19.273Z,23.80
2017-05-16T13:16:46.488Z,25.60
2017-05-16T13:19:13.720Z,24.70
2017-05-16T13:21:41.006Z,25.10
2017-05-16T13:24:08.171Z,27.70
2017-05-16T13:26:35.312Z,24.50
2017-05-16T13:29:02.505Z,23.70
2017-05-16T13:31:29.720Z,23.30
2017-05-16T13:33:56.983Z,23.30
2017-05-16T13:36:24.321Z,23.60
2017-05-16T13:38:51.578Z,23.60
2017-05-16T13:41:18.794Z,24.70
2017-05-16T13:43:46.016Z,25.40
2017-05-16T13:46:13.955Z,27.40
2017-05-16T13:48:41.116Z,27.90
2017-05-16T13:51:08.296Z,26.30
2017-05-16T13:53:35.567Z,26.30
2017-05-16T13:56:02.727Z,25.00
2017-05-16T13:58:29.912Z,23.30
2017-05-16T14:00:57.144Z,23.20
2017-05-16T14:03:24.286Z,20.90
2017-05-16T14:05:51.536Z,20.50
2017-05-16T14:08:18.730Z,23.60
2017-05-16T14:10:46.630Z,24.00
2017-05-16T14:13:13.836Z,24.50
2017-05-16T14:15:41.055Z,24.70
2017-05-16T14:18:08.249Z,24.80
2017-05-16T14:20:36.331Z,24.20
2017-05-16T14:23:03.496Z,23.50
2017-05-16T14:25:30.642Z,23.70
2017-05-16T14:27:57.863Z,22.60
2017-05-16T14:30:25.799Z,22.80
2017-05-16T14:32:52.984Z,21.80
2017-05-16T14:35:21.081Z,22.40
2017-05-16T14:37:48.281Z,21.30
2017-05-16T14:40:15.485Z,23.20
2017-05-16T14:42:42.692Z,22.70
2017-05-16T14:45:10.095Z,24.20
2017-05-16T14:47:37.290Z,26.90
2017-05-16T14:50:04.494Z,25.00
2017-05-16T14:52:31.720Z,23.80
2017-05-16T14:54:59.814Z,23.10
2017-05-16T14:57:26.989Z,23.90
2017-05-16T14:59:54.259Z,23.00
2017-05-16T15:02:21.399Z,23.20
2017-05-16T15:04:48.594Z,22.40
2017-05-16T15:07:16.611Z,23.60
2017-05-16T15:09:43.839Z,27.40
2017-05-16T15:12:11.036Z,24.40
2017-05-16T15:14:38.272Z,21.30
2017-05-16T15:17:05.482Z,19.90
2017-05-16T15:19:32.675Z,20.30
2017-05-16T15:21:59.872Z,21.80
2017-05-16T15:24:27.060Z,22.60
2017-05-16T15:26:54.217Z,23.00
2017-05-16T15:29:21.563Z,23.90
2017-05-16T15:31:48.729Z,27.60
2017-05-16T15:34:15.909Z,26.00
2017-05-16T15:36:43.849Z,26.20
2017-05-16T15:39:18.092Z,27.10
2017-05-16T15:41:45.324Z,26.80
2017-05-16T15:44:12.507Z,27.40
2017-05-16T15:46:39.721Z,28.70
2017-05-16T15:49:06.950Z,27.00
2017-05-16T15:51:34.161Z,28.00
2017-05-16T15:54:01.270Z,27.90
2017-05-16T15:56:28.465Z,28.70
2017-05-16T15:58:55.672Z,30.00
2017-05-16T16:01:22.990Z,29.90
2017-05-16T16:03:50.224Z,31.40
2017-05-16T16:06:17.558Z,35.40
2017-05-16T16:08:45.513Z,35.90
2017-05-16T16:11:13.444Z,38.10
2017-05-16T16:13:40.701Z,35.70
2017-05-16T16:16:07.881Z,38.10
2017-05-16T16:18:35.112Z,36.90
2017-05-16T16:21:09.273Z,37.70
2017-05-16T16:23:36.508Z,39.60
2017-05-16T16:26:04.422Z,37.00
2017-05-16T16:28:31.733Z,37.10
2017-05-16T16:30:59.673Z,36.10
2017-05-16T16:33:26.915Z,36.30
2017-05-16T16:35:54.108Z,38.70
2017-05-16T16:38:21.343Z,37.40
2017-05-16T16:40:49.228Z,41.10
2017-05-16T16:43:16.426Z,39.80
2017-05-16T16:45:43.560Z,39.00
2017-05-16T16:48:10.734Z,41.40
2017-05-16T16:50:37.958Z,38.00
2017-05-16T16:53:05.400Z,41.20
2017-05-16T16:55:32.604Z,40.10
2017-05-16T16:57:59.932Z,39.70
2017-05-16T17:00:27.149Z,39.50
2017-05-16T17:02:54.400Z,39.50
2017-05-16T17:05:21.605Z,39.60
2017-05-16T17:07:48.902Z,41.70
2017-05-16T17:10:16.150Z,42.50
2017-05-16T17:12:43.404Z,42.00
2017-05-16T17:15:10.764Z,40.90
2017-05-16T17:17:37.941Z,42.50
2017-05-16T17:20:05.188Z,41.90
2017-05-16T17:22:32.405Z,43.10
2017-05-16T17:24:59.636Z,40.90
2017-05-16T17:27:27.628Z,43.40
2017-05-16T17:29:54.860Z,42.50
2017-05-16T17:32:22.845Z,42.90
2017-05-16T17:34:50.112Z,43.80
2017-05-16T17:37:17.298Z,43.90
2017-05-16T17:39:44.483Z,44.80
2017-05-16T17:42:11.745Z,44.50
2017-05-16T17:44:38.969Z,44.80
2017-05-16T17:47:06.114Z,44.80
2017-05-16T17:49:33.404Z,44.90
2017-05-16T17:52:00.624Z,45.70
2017-05-16T17:54:27.890Z,43.60
2017-05-16T17:56:55.803Z,44.50
2017-05-16T17:59:23.161Z,44.60
2017-05-16T18:01:50.365Z,44.80
2017-05-16T18:04:17.856Z,45.50
2017-05-16T18:06:45.199Z,45.20
2017-05-16T18:09:12.387Z,47.20
2017-05-16T18:11:39.559Z,47.50
2017-05-16T18:14:06.832Z,47.60
2017-05-16T18:16:33.996Z,47.50
2017-05-16T18:19:01.229Z,46.90
2017-05-16T18:21:28.448Z,47.40
2017-05-16T18:23:55.651Z,47.20
2017-05-16T18:26:23.000Z,47.40
2017-05-16T18:28:50.197Z,48.10
2017-05-16T18:31:17.426Z,48.60
2017-05-16T18:33:44.816Z,49.10
2017-05-16T18:36:12.020Z,49.00
2017-05-16T18:38:39.295Z,49.00
2017-05-16T18:41:06.569Z,48.90
2017-05-16T18:43:34.568Z,49.80
2017-05-16T18:46:01.750Z,49.30
2017-05-16T18:48:29.390Z,49.90
2017-05-16T18:50:56.684Z,50.80
2017-05-16T18:53:23.937Z,51.00
2017-05-16T18:55:51.505Z,51.40
2017-05-16T18:58:18.883Z,51.60
2017-05-16T19:00:46.121Z,52.00
2017-05-16T19:03:13.440Z,52.20
2017-05-16T19:05:40.741Z,52.70
2017-05-16T19:08:07.995Z,52.70
2017-05-16T19:10:35.306Z,52.90
2017-05-16T19:13:02.561Z,53.20
2017-05-16T19:15:29.866Z,53.60
2017-05-16T19:17:57.520Z,54.30
2017-05-16T19:20:24.833Z,54.30
2017-05-16T19:22:52.141Z,54.80
2017-05-16T19:25:19.384Z,55.60
2017-05-16T19:27:46.708Z,57.00
2017-05-16T19:30:14.413Z,58.70
2017-05-16T19:32:41.826Z,59.70
2017-05-16T19:35:09.073Z,60.20
2017-05-16T19:37:36.378Z,61.70
2017-05-16T19:40:03.806Z,61.40
2017-05-16T19:42:31.125Z,61.50
2017-05-16T19:44:58.354Z,63.40
2017-05-16T19:47:25.611Z,65.20
2017-05-16T19:49:53.019Z,65.60
2017-05-16T19:52:20.401Z,65.70
2017-05-16T19:54:47.683Z,67.20
2017-05-16T19:57:16.095Z,67.70
2017-05-16T19:59:43.377Z,67.40
2017-05-16T20:02:10.647Z,69.00
2017-05-16T20:04:37.866Z,69.20
2017-05-16T20:07:05.085Z,69.60
2017-05-16T20:09:32.358Z,69.40
2017-05-16T20:11:59.608Z,70.00
2017-05-16T20:14:26.814Z,70.20
2017-05-16T20:16:54.060Z,71.10
2017-05-16T20:19:21.297Z,71.80
2017-05-16T20:21:48.633Z,72.70
2017-05-16T20:24:15.872Z,72.80
2017-05-16T20:26:43.091Z,73.60
2017-05-16T20:29:10.371Z,73.80
2017-05-16T20:31:37.739Z,73.90
2017-05-16T20:34:04.992Z,74.30
2017-05-16T20:36:32.297Z,74.70
2017-05-16T20:38:59.533Z,75.70
2017-05-16T20:41:26.842Z,75.30
2017-05-16T20:43:54.065Z,76.60
2017-05-16T20:46:21.492Z,76.90
2017-05-16T20:48:48.758Z,77.70
2017-05-16T20:51:15.951Z,78.00
2017-05-16T20:53:43.193Z,77.90
2017-05-16T20:56:10.354Z,77.80
2017-05-16T20:58:37.593Z,77.40
2017-05-16T21:01:04.881Z,78.30
2017-05-16T21:03:32.070Z,78.20
2017-05-16T21:05:59.321Z,78.50
2017-05-16T21:08:27.597Z,79.70
2017-05-16T21:10:55.530Z,80.10
2017-05-16T21:13:22.831Z,79.70
2017-05-16T21:15:50.140Z,79.30
2017-05-16T21:18:17.344Z,80.00
2017-05-16T21:20:44.555Z,80.00
2017-05-16T21:23:11.870Z,80.20
2017-05-16T21:25:39.047Z,79.90
2017-05-16T21:28:06.216Z,79.70
2017-05-16T21:30:33.419Z,80.20
2017-05-16T21:33:00.586Z,80.30
2017-05-16T21:35:27.791Z,80.60
2017-05-16T21:37:54.975Z,80.80
2017-05-16T21:40:22.167Z,81.00
2017-05-16T21:42:49.366Z,80.90
2017-05-16T21:45:16.506Z,81.10
2017-05-16T21:47:43.842Z,81.50
2017-05-16T21:50:11.820Z,82.50
2017-05-16T21:52:39.081Z,82.30
2017-05-16T22:12:14.385Z,85.40
2017-05-16T22:14:42.532Z,86.00
2017-05-16T22:17:10.841Z,85.70
2017-05-16T22:19:38.983Z,85.50
2017-05-16T22:22:06.470Z,85.00
2017-05-16T22:24:34.541Z,85.30
2017-05-16T22:27:02.668Z,85.00
2017-05-16T22:29:30.034Z,85.60
2017-05-16T22:31:57.424Z,86.10
2017-05-16T22:34:25.402Z,86.00
2017-05-16T22:36:53.324Z,85.90
2017-05-16T22:39:20.465Z,85.50
2017-05-16T22:41:47.692Z,86.20
2017-05-16T22:44:15.007Z,85.90
2017-05-16T22:46:42.164Z,85.90
2017-05-16T22:49:10.104Z,86.70
2017-05-16T22:51:37.471Z,86.80
2017-05-16T22:54:05.392Z,86.70
2017-05-16T22:56:32.600Z,86.70
2017-05-16T22:59:00.499Z,88.00
2017-05-16T23:01:27.705Z,86.50
2017-05-16T23:03:54.898Z,87.00
2017-05-16T23:06:22.079Z,87.20
2017-05-16T23:08:49.222Z,88.10
2017-05-16T23:11:16.439Z,88.20
2017-05-16T23:13:43.813Z,88.60
2017-05-16T23:16:12.000Z,88.40
2017-05-16T23:18:39.440Z,88.40
2017-05-16T23:21:06.612Z,88.40
2017-05-16T23:23:33.768Z,88.50
2017-05-16T23:26:01.064Z,88.90
2017-05-16T23:28:28.964Z,89.30
2017-05-16T23:30:56.117Z,89.30
2017-05-16T23:33:23.307Z,89.10
2017-05-16T23:35:50.491Z,89.30
2017-05-16T23:38:17.647Z,89.70
2017-05-16T23:40:44.940Z,89.60
2017-05-16T23:43:12.123Z,89.20
2017-05-16T23:45:40.042Z,88.70
2017-05-16T23:48:07.243Z,88.80
2017-05-16T23:50:35.154Z,88.80
2017-05-16T23:53:02.391Z,89.40
2017-05-16T23:55:30.489Z,88.90
2017-05-16T23:57:57.684Z,88.60
